Airfield :
LOGIN :

Register | Disclaimer

   EN    FR    IT 

 










Legend :    VFR   Marginal VFR   IFR   Intensive IFR   Very Intensive IFR
Visi :
Ceiling :
>= 8 km
>= 3000ft
5 to 8 km
1000 to 3000 ft
1500m to 5 km
500 to 1000 ft
800 to 1500m
200 to 500 ft
< 800m
< 200 ft
Symbols :   Thunderstorms  Fog  Heavy snow  Heavy precipitations  Wind > 20 kt
SIGMETs :     Misc.  Thunderstorms  Icing  Turbulence  Mountain Waves  Volcanic Ashes







- Airport Elevation : 796 ft
- IATA code : SYT
- Download approach charts


LFLN - Saint-Yan

CURRENT METAR :
  • 200130Z AUTO 00000KT 0500 R33/0650D FG VV/// 07/07 Q1024

EXPIRED METARs :
  • 200100Z AUTO 15002KT 9999 OVC002 07/06 Q1023
  • 200030Z AUTO 11002KT 1700 R33/1400U BR BKN003 06/05 Q1024
  • 200000Z AUTO 00000KT 6000 NSC 06/06 Q1024
  • 192330Z AUTO 13003KT 0600 R33/1100U FG NSC 06/05 Q1024
  • 192300Z AUTO 12004KT 6000 FEW024 06/05 Q1024

TAF TAF LFLN
Valid from the 19 at 18:00 until the 20 at 03:00 UTC


191700Z 1918/2003 33007KT 9999 SCT030 BKN050
BECMG 1921/1924 VRB02KT 0300 FG VV///
No reported NOTAMs for that airfield.



MET'MAP, your aeronautical weather chart ! - Copyright ORBIFLY December 2007 - Disclaimer

ORBIFLY MET'MAP TEAM :

Programming & Development : Alexandra Zaïnal
Concept & Development : Baudouin d'Aumeries
Co-Development & Prog : Marc-Olivier Méhu
Technical & hardware support : Manuel Goepfert

Contact : metmap@orbifly.com




SOURCES & CREDITS :

   NOAA